Time;durP1;ratioP1;P1;durP2;ratioP2;P2;SDS_P1;SDS_P2;PMS_P1;PMS_P2;Temp;Humidity;BMP_temperature;BMP_pressure;BME280_temperature;BME280_humidity;BME280_pressure;Samples;Min_cycle;Max_cycle;Signal;HPM_P1;HPM_P2
2021/09/10 00:01:05;;;;;;;27.52;15.73;;;;;;;;;;4937824;28;20503;-63
2021/09/10 00:03:33;;;;;;;31.08;14.90;;;;;;;;;;4944539;28;20059;-62
2021/09/10 00:06:02;;;;;;;25.80;13.75;;;;;;;;;;4937276;28;20039;-62
2021/09/10 00:08:29;;;;;;;30.35;15.25;;;;;;;;;;4922525;28;20113;-63
2021/09/10 00:10:55;;;;;;;31.70;14.88;;;;;;;;;;4927499;28;20125;-63
2021/09/10 00:13:23;;;;;;;31.67;15.13;;;;;;;;;;4938505;28;20038;-62
2021/09/10 00:15:58;;;;;;;27.80;14.70;;;;;;;;;;4911924;28;20392;-62
2021/09/10 00:18:24;;;;;;;23.52;13.13;;;;;;;;;;4924522;28;20043;-62
2021/09/10 00:20:50;;;;;;;25.00;14.45;;;;;;;;;;4911726;28;20034;-62
2021/09/10 00:23:16;;;;;;;26.77;14.05;;;;;;;;;;4939575;28;20154;-62
2021/09/10 00:25:42;;;;;;;32.30;14.70;;;;;;;;;;4914711;28;20589;-63
2021/09/10 00:28:14;;;;;;;26.83;15.85;;;;;;;;;;4936363;28;20039;-62
2021/09/10 00:30:40;;;;;;;32.92;15.18;;;;;;;;;;4940248;28;20581;-62
2021/09/10 00:33:08;;;;;;;29.40;16.30;;;;;;;;;;4937980;28;20039;-63
2021/09/10 00:35:36;;;;;;;37.22;16.23;;;;;;;;;;4922187;28;20204;-63
2021/09/10 00:38:04;;;;;;;35.42;15.75;;;;;;;;;;4938540;28;20833;-62
2021/09/10 00:40:32;;;;;;;36.22;17.38;;;;;;;;;;4929901;28;20039;-62
2021/09/10 00:42:57;;;;;;;38.72;18.80;;;;;;;;;;4937135;28;20096;-62
2021/09/10 00:45:23;;;;;;;37.30;16.52;;;;;;;;;;4945820;28;20073;-63
2021/09/10 00:47:51;;;;;;;44.13;17.52;;;;;;;;;;4939642;28;20062;-63
2021/09/10 00:50:17;;;;;;;28.50;15.65;;;;;;;;;;4954916;28;20042;-62
2021/09/10 00:52:44;;;;;;;34.60;16.55;;;;;;;;;;4936953;28;20046;-63
2021/09/10 00:55:11;;;;;;;30.30;16.90;;;;;;;;;;4940031;28;20824;-62
2021/09/10 00:57:38;;;;;;;37.28;16.58;;;;;;;;;;4938492;28;20039;-63
2021/09/10 01:00:06;;;;;;;36.75;16.25;;;;;;;;;;4921438;28;20031;-60
2021/09/10 01:02:34;;;;;;;30.25;15.82;;;;;;;;;;4945147;28;20031;-63
2021/09/10 01:05:00;;;;;;;25.70;14.20;;;;;;;;;;4920903;28;20031;-63
2021/09/10 01:07:25;;;;;;;26.80;15.52;;;;;;;;;;4935995;28;20761;-62
2021/09/10 01:09:51;;;;;;;45.17;16.08;;;;;;;;;;4938584;28;20121;-62
2021/09/10 01:12:19;;;;;;;27.70;15.15;;;;;;;;;;4934923;28;20046;-63
2021/09/10 01:14:50;;;;;;;27.55;15.13;;;;;;;;;;4940229;28;21270;-63
2021/09/10 01:17:16;;;;;;;27.77;15.60;;;;;;;;;;4938519;28;20043;-62
2021/09/10 01:19:45;;;;;;;26.90;14.95;;;;;;;;;;4922494;28;20027;-63
2021/09/10 01:22:10;;;;;;;29.40;14.07;;;;;;;;;;4954319;28;21000;-63
2021/09/10 01:24:40;;;;;;;27.42;13.80;;;;;;;;;;4920991;28;20459;-63
2021/09/10 01:27:09;;;;;;;29.08;13.75;;;;;;;;;;4937379;28;20533;-61
2021/09/10 01:29:38;;;;;;;28.55;14.27;;;;;;;;;;4941445;28;20062;-63
2021/09/10 01:32:04;;;;;;;26.45;14.30;;;;;;;;;;4911906;28;20105;-63
2021/09/10 01:34:34;;;;;;;29.20;13.77;;;;;;;;;;4954057;28;20111;-63
2021/09/10 01:37:02;;;;;;;24.80;13.25;;;;;;;;;;4936992;28;20618;-63
2021/09/10 01:39:28;;;;;;;29.80;13.05;;;;;;;;;;4947713;28;20038;-62
2021/09/10 01:41:53;;;;;;;21.92;13.02;;;;;;;;;;4928482;28;20035;-62
2021/09/10 01:44:18;;;;;;;25.83;11.68;;;;;;;;;;4926552;28;20073;-63
2021/09/10 01:46:44;;;;;;;28.73;12.20;;;;;;;;;;4940570;28;20118;-62
2021/09/10 01:49:12;;;;;;;26.70;12.57;;;;;;;;;;4939278;28;20865;-61
2021/09/10 01:51:37;;;;;;;26.38;12.68;;;;;;;;;;4944089;28;20038;-63
2021/09/10 01:54:06;;;;;;;25.80;12.60;;;;;;;;;;4942105;28;20027;-63
2021/09/10 01:56:31;;;;;;;23.60;12.55;;;;;;;;;;4931226;28;20435;-63
2021/09/10 01:58:57;;;;;;;24.48;12.82;;;;;;;;;;4910226;28;20132;-63
2021/09/10 02:01:26;;;;;;;23.42;12.13;;;;;;;;;;4926399;28;20050;-63
2021/09/10 02:03:54;;;;;;;28.27;12.13;;;;;;;;;;4942040;28;20038;-62
2021/09/10 02:06:19;;;;;;;21.95;11.45;;;;;;;;;;4957246;28;20049;-62
2021/09/10 02:08:45;;;;;;;25.83;11.38;;;;;;;;;;4922980;28;20047;-62
2021/09/10 02:11:12;;;;;;;20.33;10.85;;;;;;;;;;4943324;28;21044;-61
2021/09/10 02:13:38;;;;;;;19.83;9.57;;;;;;;;;;4956145;28;20042;-63
2021/09/10 02:16:04;;;;;;;20.55;10.32;;;;;;;;;;4957175;28;20038;-62
2021/09/10 02:18:29;;;;;;;22.25;11.02;;;;;;;;;;4940527;28;20095;-63
2021/09/10 02:20:54;;;;;;;19.17;10.88;;;;;;;;;;4940668;28;20027;-62
2021/09/10 02:23:20;;;;;;;19.00;11.85;;;;;;;;;;4948862;28;20031;-62
2021/09/10 02:25:48;;;;;;;21.85;12.63;;;;;;;;;;4932061;28;20109;-63
2021/09/10 02:28:14;;;;;;;25.75;13.00;;;;;;;;;;4941161;28;20039;-62
2021/09/10 02:30:39;;;;;;;28.63;13.95;;;;;;;;;;4909269;28;20031;-62
2021/09/10 02:33:05;;;;;;;23.08;13.50;;;;;;;;;;4940167;28;20071;-61
2021/09/10 02:35:48;;;;;;;30.13;13.68;;;;;;;;;;4945942;28;20565;-60
2021/09/10 02:38:14;;;;;;;27.27;13.68;;;;;;;;;;4945249;28;20153;-63
2021/09/10 02:40:53;;;;;;;24.65;12.68;;;;;;;;;;4940874;28;20038;-61
2021/09/10 02:43:21;;;;;;;25.55;13.63;;;;;;;;;;4941113;28;20047;-63
2021/09/10 02:45:49;;;;;;;31.50;14.68;;;;;;;;;;4942465;28;20035;-62
2021/09/10 02:48:15;;;;;;;30.75;14.50;;;;;;;;;;4941683;28;20039;-61
2021/09/10 02:50:42;;;;;;;32.30;14.10;;;;;;;;;;4941711;28;20767;-62
2021/09/10 02:53:08;;;;;;;28.20;14.75;;;;;;;;;;4942307;28;20032;-63
2021/09/10 02:55:38;;;;;;;23.33;13.23;;;;;;;;;;4940541;28;20114;-62
2021/09/10 02:58:04;;;;;;;25.38;13.38;;;;;;;;;;4901462;28;20092;-63
2021/09/10 03:00:31;;;;;;;26.08;12.60;;;;;;;;;;4928694;28;20031;-61
2021/09/10 03:03:00;;;;;;;25.42;13.38;;;;;;;;;;4922470;28;20027;-62
2021/09/10 03:05:29;;;;;;;26.42;13.32;;;;;;;;;;4941675;28;20023;-62
2021/09/10 03:07:58;;;;;;;23.08;12.23;;;;;;;;;;4937740;28;20047;-62
2021/09/10 03:10:24;;;;;;;24.88;13.18;;;;;;;;;;4938193;28;20047;-62
2021/09/10 03:12:54;;;;;;;24.00;13.05;;;;;;;;;;4937047;28;20592;-62
2021/09/10 03:15:20;;;;;;;25.73;13.02;;;;;;;;;;4941670;28;20038;-61
2021/09/10 03:17:46;;;;;;;26.80;12.77;;;;;;;;;;4938725;28;20518;-63
2021/09/10 03:20:12;;;;;;;28.75;13.55;;;;;;;;;;4941048;28;20035;-62
2021/09/10 03:22:41;;;;;;;24.80;13.35;;;;;;;;;;4941128;28;20023;-64
2021/09/10 03:25:11;;;;;;;22.42;12.25;;;;;;;;;;4955937;28;22015;-63
2021/09/10 03:27:36;;;;;;;23.20;13.73;;;;;;;;;;4953853;28;22062;-62
2021/09/10 03:30:09;;;;;;;27.85;13.70;;;;;;;;;;4954835;28;20035;-63
2021/09/10 03:32:39;;;;;;;26.23;13.10;;;;;;;;;;4955604;28;20093;-62
2021/09/10 03:35:05;;;;;;;22.60;12.43;;;;;;;;;;4929006;28;20051;-63
2021/09/10 03:37:33;;;;;;;23.20;13.20;;;;;;;;;;4940707;28;20549;-62
2021/09/10 03:39:58;;;;;;;23.05;12.68;;;;;;;;;;4955152;28;20162;-63
2021/09/10 03:42:28;;;;;;;20.90;11.88;;;;;;;;;;4940158;28;20031;-62
2021/09/10 03:44:59;;;;;;;26.38;13.38;;;;;;;;;;4957155;28;20134;-62
2021/09/10 03:47:25;;;;;;;21.77;13.05;;;;;;;;;;4940041;28;20058;-62
2021/09/10 03:49:51;;;;;;;23.60;13.13;;;;;;;;;;4923169;28;20034;-62
2021/09/10 03:52:16;;;;;;;24.48;11.60;;;;;;;;;;4911130;28;20641;-62
2021/09/10 03:54:41;;;;;;;24.15;12.65;;;;;;;;;;4928214;28;20046;-63
2021/09/10 03:57:07;;;;;;;29.88;13.40;;;;;;;;;;4926199;28;20978;-62
2021/09/10 03:59:33;;;;;;;24.30;12.88;;;;;;;;;;4954512;28;21169;-63
2021/09/10 04:01:59;;;;;;;24.20;13.43;;;;;;;;;;4926713;28;20032;-63
2021/09/10 04:04:27;;;;;;;20.80;12.20;;;;;;;;;;4940405;28;20031;-62
2021/09/10 04:06:53;;;;;;;24.52;13.02;;;;;;;;;;4954123;28;20043;-61
2021/09/10 04:09:18;;;;;;;25.27;13.40;;;;;;;;;;4954901;28;20041;-63
2021/09/10 04:11:44;;;;;;;21.35;11.73;;;;;;;;;;4919176;28;20027;-62
2021/09/10 04:14:11;;;;;;;26.35;12.75;;;;;;;;;;4921989;28;20067;-62
2021/09/10 04:16:36;;;;;;;27.52;13.13;;;;;;;;;;4955304;28;20505;-63
2021/09/10 04:19:06;;;;;;;21.40;11.90;;;;;;;;;;4953065;28;20057;-62
2021/09/10 04:21:31;;;;;;;21.67;11.43;;;;;;;;;;4924335;28;20043;-63
2021/09/10 04:23:57;;;;;;;26.92;13.20;;;;;;;;;;4954150;28;20094;-64
2021/09/10 04:26:27;;;;;;;24.05;12.68;;;;;;;;;;4952903;28;20047;-63
2021/09/10 04:28:53;;;;;;;23.95;12.50;;;;;;;;;;4953693;28;20090;-62
2021/09/10 04:31:23;;;;;;;24.52;13.52;;;;;;;;;;4939731;28;20125;-62
2021/09/10 04:33:48;;;;;;;25.65;13.57;;;;;;;;;;4954464;28;20051;-62
2021/09/10 04:36:19;;;;;;;21.30;12.32;;;;;;;;;;4930213;28;20043;-63
2021/09/10 04:38:46;;;;;;;25.67;12.45;;;;;;;;;;4938840;28;20082;-63
2021/09/10 04:41:12;;;;;;;31.38;12.98;;;;;;;;;;4954430;28;20035;-63
2021/09/10 04:43:37;;;;;;;23.75;13.85;;;;;;;;;;4937995;28;20038;-62
2021/09/10 04:46:03;;;;;;;26.73;13.88;;;;;;;;;;4909520;28;20487;-63
2021/09/10 04:48:31;;;;;;;32.95;15.98;;;;;;;;;;4952969;28;20076;-63
2021/09/10 04:51:01;;;;;;;26.30;15.32;;;;;;;;;;4926432;28;20063;-62
2021/09/10 04:53:26;;;;;;;30.27;15.77;;;;;;;;;;4937480;28;20039;-63
2021/09/10 04:55:52;;;;;;;29.65;14.43;;;;;;;;;;4953755;28;20485;-63
2021/09/10 04:58:17;;;;;;;29.42;14.35;;;;;;;;;;4935101;28;20043;-63
2021/09/10 05:00:50;;;;;;;32.50;14.95;;;;;;;;;;4937763;28;20031;-62
2021/09/10 05:03:19;;;;;;;34.15;16.00;;;;;;;;;;4938514;28;20073;-62
2021/09/10 05:05:46;;;;;;;28.25;14.68;;;;;;;;;;4939127;28;20122;-62
2021/09/10 05:08:14;;;;;;;33.05;16.90;;;;;;;;;;4924036;28;20054;-63
2021/09/10 05:10:40;;;;;;;35.25;16.48;;;;;;;;;;4938474;28;20050;-61
2021/09/10 05:13:11;;;;;;;30.35;15.85;;;;;;;;;;4937576;28;20031;-63
2021/09/10 05:15:38;;;;;;;28.52;15.82;;;;;;;;;;4937810;28;20130;-62
2021/09/10 05:18:07;;;;;;;28.40;15.52;;;;;;;;;;4937407;28;20031;-63
2021/09/10 05:20:37;;;;;;;31.63;16.17;;;;;;;;;;4921726;28;20038;-63
2021/09/10 05:23:02;;;;;;;31.83;16.20;;;;;;;;;;4938934;28;20039;-62
2021/09/10 05:25:31;;;;;;;33.92;16.98;;;;;;;;;;4937397;28;20027;-62
2021/09/10 05:27:57;;;;;;;34.80;17.10;;;;;;;;;;4935846;28;20058;-62
2021/09/10 05:30:25;;;;;;;35.30;17.20;;;;;;;;;;4954136;28;20149;-62
2021/09/10 05:32:51;;;;;;;36.15;18.23;;;;;;;;;;4939076;28;20791;-64
2021/09/10 05:35:21;;;;;;;30.25;18.13;;;;;;;;;;4925980;28;20055;-61
2021/09/10 05:37:47;;;;;;;43.20;17.60;;;;;;;;;;4928547;28;20039;-62
2021/09/10 05:40:15;;;;;;;39.38;17.40;;;;;;;;;;4936961;28;20739;-63
2021/09/10 05:42:47;;;;;;;39.00;18.92;;;;;;;;;;4954089;28;20952;-63
2021/09/10 05:45:12;;;;;;;38.05;18.77;;;;;;;;;;4938546;28;20460;-63
2021/09/10 05:47:38;;;;;;;36.03;18.23;;;;;;;;;;4936448;28;20049;-63
2021/09/10 05:50:09;;;;;;;38.63;18.33;;;;;;;;;;4937263;28;20038;-63
2021/09/10 05:52:37;;;;;;;39.03;19.60;;;;;;;;;;4952547;28;20038;-63
2021/09/10 05:55:05;;;;;;;38.10;19.63;;;;;;;;;;4924384;28;20050;-62
2021/09/10 05:57:30;;;;;;;41.08;21.00;;;;;;;;;;4935375;28;20046;-62
2021/09/10 05:59:56;;;;;;;44.63;20.90;;;;;;;;;;4921339;28;20494;-63
2021/09/10 06:02:24;;;;;;;39.45;21.02;;;;;;;;;;4908191;28;21047;-64
2021/09/10 06:04:52;;;;;;;44.60;22.23;;;;;;;;;;4952490;28;20031;-64
2021/09/10 06:07:17;;;;;;;49.53;22.42;;;;;;;;;;4937194;28;20035;-62
2021/09/10 06:09:43;;;;;;;41.85;21.67;;;;;;;;;;4908783;28;20545;-62
2021/09/10 06:12:09;;;;;;;50.50;22.75;;;;;;;;;;4938082;28;21138;-62
2021/09/10 06:14:39;;;;;;;41.92;22.73;;;;;;;;;;4952331;28;20451;-61
2021/09/10 06:17:07;;;;;;;48.85;22.85;;;;;;;;;;4906386;28;20039;-62
2021/09/10 06:19:37;;;;;;;44.25;22.55;;;;;;;;;;4939450;28;20042;-62
2021/09/10 06:22:03;;;;;;;43.42;21.27;;;;;;;;;;4936234;28;20245;-63
2021/09/10 06:24:29;;;;;;;44.92;23.95;;;;;;;;;;4926084;28;20027;-62
2021/09/10 06:27:00;;;;;;;41.25;23.25;;;;;;;;;;4934532;28;20026;-62
2021/09/10 06:29:25;;;;;;;56.10;25.65;;;;;;;;;;4952400;28;20066;-62
2021/09/10 06:31:51;;;;;;;41.25;23.10;;;;;;;;;;4936447;28;20126;-63
2021/09/10 06:34:21;;;;;;;45.58;23.50;;;;;;;;;;4918918;28;20043;-61
2021/09/10 06:36:49;;;;;;;45.58;23.73;;;;;;;;;;4955235;28;20675;-63
2021/09/10 06:39:18;;;;;;;45.35;24.15;;;;;;;;;;4923362;28;20039;-62
2021/09/10 06:41:45;;;;;;;42.58;22.63;;;;;;;;;;4938091;28;20035;-62
2021/09/10 06:44:11;;;;;;;42.63;23.40;;;;;;;;;;4929181;28;20114;-62
2021/09/10 06:46:39;;;;;;;41.70;21.55;;;;;;;;;;4955397;28;20049;-63
2021/09/10 06:49:08;;;;;;;38.30;20.42;;;;;;;;;;4940128;28;21891;-62
2021/09/10 06:51:33;;;;;;;40.22;20.58;;;;;;;;;;4953867;28;20062;-63
2021/09/10 06:54:01;;;;;;;38.80;20.35;;;;;;;;;;4919269;28;20039;-62
2021/09/10 06:56:29;;;;;;;34.70;18.50;;;;;;;;;;4926976;28;20031;-62
2021/09/10 06:58:54;;;;;;;33.88;18.98;;;;;;;;;;4921127;28;20518;-62
2021/09/10 07:01:20;;;;;;;32.95;19.27;;;;;;;;;;4938740;28;20866;-62
2021/09/10 07:03:47;;;;;;;35.50;18.50;;;;;;;;;;4923066;28;20031;-62
2021/09/10 07:06:15;;;;;;;27.15;17.65;;;;;;;;;;4939849;28;20026;-62
2021/09/10 07:08:41;;;;;;;27.80;17.48;;;;;;;;;;4939277;28;20027;-62
2021/09/10 07:11:06;;;;;;;28.67;18.00;;;;;;;;;;4954448;28;20125;-63
2021/09/10 07:13:34;;;;;;;33.55;17.83;;;;;;;;;;4952324;28;20038;-62
2021/09/10 07:16:02;;;;;;;30.75;18.45;;;;;;;;;;4954575;28;20034;-61
2021/09/10 07:18:29;;;;;;;34.17;18.00;;;;;;;;;;4938533;28;20312;-62
2021/09/10 07:20:59;;;;;;;29.15;18.42;;;;;;;;;;4940090;28;20053;-62
2021/09/10 07:23:27;;;;;;;29.58;18.35;;;;;;;;;;4915022;28;20147;-62
2021/09/10 07:25:56;;;;;;;28.25;16.73;;;;;;;;;;4939599;28;20131;-62
2021/09/10 07:28:22;;;;;;;29.98;17.83;;;;;;;;;;4936834;28;20142;-62
2021/09/10 07:30:47;;;;;;;29.77;17.95;;;;;;;;;;4939947;28;20039;-62
2021/09/10 07:33:13;;;;;;;32.33;17.73;;;;;;;;;;4924364;28;20053;-62
2021/09/10 07:35:39;;;;;;;32.22;17.17;;;;;;;;;;4923854;28;20051;-62
2021/09/10 07:38:07;;;;;;;30.77;17.13;;;;;;;;;;4921234;28;20043;-62
2021/09/10 07:40:33;;;;;;;35.13;18.05;;;;;;;;;;4937602;28;20054;-62
2021/09/10 07:43:01;;;;;;;30.67;17.67;;;;;;;;;;4908709;28;20031;-64
2021/09/10 07:45:27;;;;;;;28.83;17.73;;;;;;;;;;4953981;28;20031;-62
2021/09/10 07:47:54;;;;;;;31.95;18.60;;;;;;;;;;4930975;28;20043;-61
2021/09/10 07:50:22;;;;;;;25.88;16.05;;;;;;;;;;4936570;28;20050;-62
2021/09/10 07:52:48;;;;;;;31.80;17.75;;;;;;;;;;4938098;28;20812;-63
2021/09/10 07:55:15;;;;;;;27.42;15.60;;;;;;;;;;4939088;28;20038;-62
2021/09/10 07:57:42;;;;;;;28.17;16.08;;;;;;;;;;4938151;28;20043;-63
2021/09/10 08:00:16;;;;;;;31.90;18.30;;;;;;;;;;4939981;28;20027;-62
2021/09/10 08:02:47;;;;;;;30.95;17.65;;;;;;;;;;4939290;28;20054;-62
2021/09/10 08:05:13;;;;;;;29.50;17.63;;;;;;;;;;4938100;28;20043;-63
2021/09/10 08:07:38;;;;;;;26.25;16.33;;;;;;;;;;4935607;28;20538;-62
2021/09/10 08:10:04;;;;;;;29.25;16.73;;;;;;;;;;4929781;28;20387;-63
2021/09/10 08:12:30;;;;;;;31.25;16.92;;;;;;;;;;4952256;28;20042;-63
2021/09/10 08:14:58;;;;;;;30.40;16.38;;;;;;;;;;4938285;28;20034;-63
2021/09/10 08:17:24;;;;;;;26.25;16.30;;;;;;;;;;4911332;28;20043;-61
2021/09/10 08:19:50;;;;;;;27.02;16.50;;;;;;;;;;4937642;28;20408;-63
2021/09/10 08:22:19;;;;;;;28.77;16.15;;;;;;;;;;4935895;28;20144;-63
2021/09/10 08:24:47;;;;;;;27.13;17.17;;;;;;;;;;4954514;28;20023;-62
2021/09/10 08:27:15;;;;;;;31.98;16.27;;;;;;;;;;4935589;28;21949;-63
2021/09/10 08:29:41;;;;;;;26.77;16.13;;;;;;;;;;4953751;28;20639;-63
2021/09/10 08:32:12;;;;;;;24.63;15.25;;;;;;;;;;4941834;28;20024;-63
2021/09/10 08:34:37;;;;;;;28.58;16.85;;;;;;;;;;4927512;28;20514;-63
2021/09/10 08:37:03;;;;;;;31.92;18.27;;;;;;;;;;4920273;28;20042;-63
2021/09/10 08:39:31;;;;;;;28.58;17.92;;;;;;;;;;4937304;28;20067;-63
2021/09/10 08:41:59;;;;;;;31.40;17.52;;;;;;;;;;4951894;28;20183;-62
2021/09/10 08:44:30;;;;;;;26.40;16.90;;;;;;;;;;4938927;28;20031;-62
2021/09/10 08:46:58;;;;;;;33.10;19.08;;;;;;;;;;4937109;28;20042;-63
2021/09/10 08:49:23;;;;;;;29.92;18.35;;;;;;;;;;4952234;28;20073;-63
2021/09/10 08:51:49;;;;;;;34.17;18.42;;;;;;;;;;4937499;28;20035;-64
2021/09/10 08:54:18;;;;;;;32.80;18.65;;;;;;;;;;4935978;28;20109;-62
2021/09/10 08:56:46;;;;;;;29.02;18.02;;;;;;;;;;4937136;28;20032;-62
2021/09/10 08:59:18;;;;;;;36.90;18.55;;;;;;;;;;4938652;28;20046;-62
2021/09/10 09:01:54;;;;;;;35.00;19.42;;;;;;;;;;4950672;28;20093;-63
2021/09/10 09:04:23;;;;;;;32.40;19.27;;;;;;;;;;4939936;28;20399;-62
2021/09/10 09:06:53;;;;;;;36.85;21.77;;;;;;;;;;4952819;28;20038;-61
2021/09/10 09:09:40;;;;;;;36.05;18.77;;;;;;;;;;4940657;28;20073;-62
2021/09/10 09:12:18;;;;;;;38.92;20.42;;;;;;;;;;4935383;28;20663;-63
2021/09/10 09:14:44;;;;;;;36.67;20.58;;;;;;;;;;4953582;28;20031;-62
2021/09/10 09:17:19;;;;;;;37.20;19.88;;;;;;;;;;4953588;28;20129;-62
2021/09/10 09:20:04;;;;;;;35.05;21.27;;;;;;;;;;4940109;28;20045;-60
2021/09/10 09:22:52;;;;;;;39.38;20.73;;;;;;;;;;4937576;28;20228;-63
2021/09/10 09:25:18;;;;;;;36.35;21.83;;;;;;;;;;4937290;28;20049;-62
2021/09/10 09:27:45;;;;;;;40.30;20.30;;;;;;;;;;4919435;28;21305;-61
2021/09/10 09:30:10;;;;;;;35.33;19.20;;;;;;;;;;4935788;28;20046;-62
2021/09/10 09:32:49;;;;;;;35.72;20.42;;;;;;;;;;4908458;28;20046;-61
2021/09/10 09:35:14;;;;;;;34.13;19.90;;;;;;;;;;4953093;28;20047;-61
2021/09/10 09:37:42;;;;;;;38.83;20.10;;;;;;;;;;4935927;28;20046;-62
2021/09/10 09:40:09;;;;;;;32.97;17.95;;;;;;;;;;4907843;28;20495;-63
2021/09/10 09:42:35;;;;;;;39.35;19.02;;;;;;;;;;4939251;28;20287;-62
2021/09/10 09:45:10;;;;;;;32.95;19.77;;;;;;;;;;4937332;28;20521;-61
2021/09/10 09:47:43;;;;;;;37.30;20.75;;;;;;;;;;4951921;28;20030;-62
2021/09/10 09:50:10;;;;;;;32.67;19.38;;;;;;;;;;4939338;28;20054;-62
2021/09/10 09:52:41;;;;;;;36.33;17.90;;;;;;;;;;4937676;28;20113;-63
2021/09/10 09:55:10;;;;;;;32.05;18.58;;;;;;;;;;4951704;28;20593;-62
2021/09/10 09:57:38;;;;;;;38.50;20.02;;;;;;;;;;4944496;28;20039;-62
2021/09/10 10:00:07;;;;;;;39.15;21.98;;;;;;;;;;4936174;28;20031;-63
2021/09/10 10:02:35;;;;;;;39.88;21.08;;;;;;;;;;4953022;28;20043;-62
2021/09/10 10:05:01;;;;;;;43.97;22.00;;;;;;;;;;4944208;28;20038;-64
2021/09/10 10:07:37;;;;;;;38.65;21.05;;;;;;;;;;4936190;28;22090;-63
2021/09/10 10:10:09;;;;;;;40.28;21.20;;;;;;;;;;4945614;28;20466;-63
2021/09/10 10:12:36;;;;;;;42.38;22.50;;;;;;;;;;4937891;28;20031;-65
2021/09/10 10:15:31;;;;;;;38.40;20.98;;;;;;;;;;4941161;28;20037;-64
2021/09/10 10:17:58;;;;;;;38.60;20.73;;;;;;;;;;4943938;28;20078;-63
2021/09/10 10:20:42;;;;;;;36.75;19.45;;;;;;;;;;4955479;28;20031;-63
2021/09/10 10:23:49;;;;;;;36.70;21.00;;;;;;;;;;4940304;28;20038;-64
2021/09/10 10:26:17;;;;;;;37.78;19.83;;;;;;;;;;4868741;29;20040;-63
2021/09/10 10:28:45;;;;;;;43.50;21.33;;;;;;;;;;4900554;29;20613;-64
2021/09/10 10:31:42;;;;;;;37.25;20.83;;;;;;;;;;4961746;23;20066;-86
2021/09/10 10:34:20;;;;;;;39.13;20.60;;;;;;;;;;4999468;28;20026;-91
2021/09/10 10:36:46;;;;;;;36.85;20.05;;;;;;;;;;5014002;28;20026;-91
2021/09/10 10:39:14;;;;;;;38.28;20.92;;;;;;;;;;4999887;28;20042;-92
2021/09/10 10:41:53;;;;;;;38.03;20.83;;;;;;;;;;4980612;28;20026;-90
2021/09/10 10:44:31;;;;;;;37.33;19.83;;;;;;;;;;4996575;28;20030;-89
2021/09/10 10:47:06;;;;;;;35.25;20.25;;;;;;;;;;5002839;28;20070;-92
2021/09/10 10:49:33;;;;;;;34.40;20.13;;;;;;;;;;5016391;28;20448;-90
2021/09/10 10:52:27;;;;;;;37.53;20.30;;;;;;;;;;5001400;28;20093;-89
2021/09/10 10:55:11;;;;;;;40.22;21.27;;;;;;;;;;4996128;28;20622;-89
2021/09/10 10:57:37;;;;;;;40.03;21.38;;;;;;;;;;5000704;28;20041;-91
2021/09/10 11:00:30;;;;;;;39.47;20.40;;;;;;;;;;4982522;28;20037;-92
2021/09/10 11:03:18;;;;;;;38.80;21.38;;;;;;;;;;5000989;28;20033;-90
2021/09/10 11:05:44;;;;;;;41.83;19.55;;;;;;;;;;5000033;28;20169;-89
2021/09/10 11:08:17;;;;;;;37.38;20.10;;;;;;;;;;4997166;28;20053;-88
2021/09/10 11:10:58;;;;;;;36.80;21.17;;;;;;;;;;5001482;28;20041;-92
2021/09/10 11:13:39;;;;;;;36.67;20.17;;;;;;;;;;5014616;28;20089;-90
2021/09/10 11:16:08;;;;;;;46.95;19.98;;;;;;;;;;4999384;28;20053;-93
2021/09/10 11:18:46;;;;;;;31.92;18.83;;;;;;;;;;4996046;28;20027;-91
2021/09/10 11:21:24;;;;;;;34.58;19.05;;;;;;;;;;4981522;28;20113;-89
2021/09/10 11:23:53;;;;;;;28.52;17.55;;;;;;;;;;4982333;28;20090;-87
2021/09/10 11:26:44;;;;;;;26.88;17.75;;;;;;;;;;4977069;28;20018;-90
2021/09/10 11:29:10;;;;;;;28.83;18.10;;;;;;;;;;5011387;28;20069;-90
2021/09/10 11:31:36;;;;;;;30.00;17.77;;;;;;;;;;4969312;28;20471;-92
2021/09/10 11:34:04;;;;;;;27.23;17.35;;;;;;;;;;4999372;28;20092;-88
2021/09/10 11:36:36;;;;;;;24.75;16.77;;;;;;;;;;4966674;28;20099;-90
2021/09/10 11:39:06;;;;;;;28.30;16.60;;;;;;;;;;4986581;28;20081;-90
2021/09/10 11:41:36;;;;;;;26.92;15.88;;;;;;;;;;4994603;28;20035;-93
2021/09/10 11:44:06;;;;;;;26.42;16.38;;;;;;;;;;4999433;28;20046;-90
2021/09/10 11:46:55;;;;;;;23.48;15.88;;;;;;;;;;4998034;28;20346;-88
2021/09/10 11:50:00;;;;;;;23.15;15.65;;;;;;;;;;4990616;28;20047;-89
2021/09/10 11:52:32;;;;;;;25.25;16.05;;;;;;;;;;5000576;28;20093;-89
2021/09/10 11:55:20;;;;;;;24.85;16.33;;;;;;;;;;4998624;28;20371;-92
2021/09/10 11:57:46;;;;;;;25.60;16.65;;;;;;;;;;4996572;28;20057;-91
2021/09/10 12:00:25;;;;;;;22.48;14.98;;;;;;;;;;4999986;28;20092;-89
2021/09/10 12:02:59;;;;;;;32.53;17.33;;;;;;;;;;5003004;28;20049;-91
2021/09/10 12:05:29;;;;;;;29.63;16.20;;;;;;;;;;5000493;28;20026;-92
2021/09/10 12:08:17;;;;;;;20.63;15.57;;;;;;;;;;4985680;28;20030;-89
2021/09/10 12:10:42;;;;;;;22.48;14.95;;;;;;;;;;5001128;28;20077;-88
2021/09/10 12:13:25;;;;;;;24.35;14.25;;;;;;;;;;5012771;28;20030;-90
2021/09/10 12:16:00;;;;;;;22.05;14.25;;;;;;;;;;5005657;28;20023;-93
2021/09/10 12:18:26;;;;;;;22.95;14.50;;;;;;;;;;4999484;28;20052;-90
2021/09/10 12:20:56;;;;;;;24.13;13.45;;;;;;;;;;4975458;28;20066;-90
2021/09/10 12:23:43;;;;;;;20.00;13.80;;;;;;;;;;5002725;28;20041;-92
2021/09/10 12:26:13;;;;;;;19.25;13.18;;;;;;;;;;4988535;28;20061;-89
2021/09/10 12:28:39;;;;;;;20.10;11.77;;;;;;;;;;5010340;28;20030;-87
2021/09/10 12:31:14;;;;;;;17.65;12.00;;;;;;;;;;5013635;28;20097;-88
2021/09/10 12:33:51;;;;;;;19.98;13.80;;;;;;;;;;5004650;28;20050;-90
2021/09/10 12:36:21;;;;;;;16.55;11.93;;;;;;;;;;4985028;28;20085;-89
2021/09/10 12:38:58;;;;;;;17.73;11.98;;;;;;;;;;5007078;28;20033;-91
2021/09/10 12:41:32;;;;;;;18.75;12.63;;;;;;;;;;5004480;28;20023;-91
2021/09/10 12:44:08;;;;;;;16.85;12.45;;;;;;;;;;4986690;28;20027;-88
2021/09/10 12:46:45;;;;;;;20.70;13.00;;;;;;;;;;5004130;28;20101;-90
2021/09/10 12:49:14;;;;;;;27.13;16.95;;;;;;;;;;4999403;28;20046;-92
2021/09/10 12:51:45;;;;;;;22.25;15.70;;;;;;;;;;4983198;28;20037;-90
2021/09/10 12:54:17;;;;;;;21.60;14.82;;;;;;;;;;5003225;28;20031;-89
2021/09/10 12:56:42;;;;;;;23.13;15.52;;;;;;;;;;4980164;28;20575;-88
2021/09/10 12:59:30;;;;;;;23.63;15.40;;;;;;;;;;4998571;28;20058;-89
2021/09/10 13:02:09;;;;;;;23.40;15.75;;;;;;;;;;4982096;28;20022;-87
2021/09/10 13:04:44;;;;;;;23.52;15.85;;;;;;;;;;4965629;28;20030;-90
2021/09/10 13:07:09;;;;;;;20.80;14.30;;;;;;;;;;4998731;28;20563;-91
2021/09/10 13:09:35;;;;;;;18.35;12.98;;;;;;;;;;4974416;28;20034;-88
2021/09/10 13:12:05;;;;;;;16.98;13.27;;;;;;;;;;4978238;28;20050;-89
2021/09/10 13:14:31;;;;;;;19.92;13.18;;;;;;;;;;4984645;28;20093;-88
2021/09/10 13:16:57;;;;;;;16.45;12.43;;;;;;;;;;4981004;28;20022;-90
2021/09/10 13:19:31;;;;;;;16.73;11.70;;;;;;;;;;4996138;28;20128;-90
2021/09/10 13:21:57;;;;;;;12.68;8.05;;;;;;;;;;4986292;28;20041;-92
2021/09/10 13:24:22;;;;;;;10.50;8.27;;;;;;;;;;5000085;28;20042;-89
2021/09/10 13:26:51;;;;;;;9.60;7.68;;;;;;;;;;4980965;28;20066;-91
2021/09/10 13:29:19;;;;;;;12.65;9.82;;;;;;;;;;4997697;28;20097;-90
2021/09/10 13:31:56;;;;;;;13.52;8.43;;;;;;;;;;4983598;28;20034;-90
2021/09/10 13:34:25;;;;;;;9.48;8.48;;;;;;;;;;5010119;28;20022;-92
2021/09/10 13:37:14;;;;;;;11.82;9.65;;;;;;;;;;4978927;28;20540;-91
2021/09/10 13:39:48;;;;;;;14.63;10.18;;;;;;;;;;4989736;28;20053;-90
2021/09/10 13:42:14;;;;;;;;;;;;;;;;;;4977014;28;20060;-91
2021/09/10 13:44:42;;;;;;;12.98;9.45;;;;;;;;;;5010973;28;19968;-91
2021/09/10 13:47:09;;;;;;;12.70;8.90;;;;;;;;;;4976282;28;20031;-88
2021/09/10 13:49:43;;;;;;;11.30;9.07;;;;;;;;;;4975366;28;20050;-90
2021/09/10 13:52:08;;;;;;;11.13;8.85;;;;;;;;;;4990401;28;20046;-90
2021/09/10 13:54:34;;;;;;;9.93;7.75;;;;;;;;;;5008461;28;20320;-88
2021/09/10 13:57:04;;;;;;;22.95;9.43;;;;;;;;;;5006775;28;20038;-87
2021/09/10 13:59:30;;;;;;;13.43;8.38;;;;;;;;;;5004182;28;20038;-86
2021/09/10 14:01:57;;;;;;;13.88;8.18;;;;;;;;;;4981660;28;20073;-89
2021/09/10 14:04:26;;;;;;;12.38;7.93;;;;;;;;;;5001509;28;20057;-90
2021/09/10 14:06:51;;;;;;;12.65;7.90;;;;;;;;;;4985522;28;20048;-92
2021/09/10 14:09:18;;;;;;;10.23;7.90;;;;;;;;;;4981693;28;20421;-89
2021/09/10 14:11:51;;;;;;;10.25;7.60;;;;;;;;;;4980159;28;20030;-91
2021/09/10 14:14:17;;;;;;;10.95;7.63;;;;;;;;;;4996500;28;20088;-88
2021/09/10 14:16:42;;;;;;;9.93;7.30;;;;;;;;;;4978735;28;20030;-91
2021/09/10 14:19:12;;;;;;;9.75;6.95;;;;;;;;;;4975428;28;20477;-92
2021/09/10 14:21:38;;;;;;;8.57;6.95;;;;;;;;;;4975585;28;20049;-90
2021/09/10 14:24:03;;;;;;;10.88;6.10;;;;;;;;;;4973994;28;20042;-92
2021/09/10 14:26:36;;;;;;;8.40;5.35;;;;;;;;;;4993540;28;20081;-90
2021/09/10 14:29:20;;;;;;;8.65;6.32;;;;;;;;;;4993090;28;20096;-92
2021/09/10 14:32:05;;;;;;;5.97;3.33;;;;;;;;;;4991856;28;21027;-89